^^
Datos históricos de la estación: Murcia-Puente Tocinos
Diario Informe para Marzo 6, 2021 Unidades:  Métrico    Ingés   Ambas
Diario Semanal Mensual Anual
  Máxima: Mínima: Promedio:
Temperatura: 11.7 °C 3.9 °C 7.7 °C
Punto de rocio: 4 °C -4.4 °C -1 °C
Humedad: 71% 42.9% 55%
Velocidad viento: 14km/h 0km/h 6.4km/h
Racha viento: 24.1km/h - -
Viento- - SSE
Presión: 1014.3 hPa 1010.7 hPa -
Precipitación: 0.0 mm    
 
 
Tabla de datos para Marzo 6, 2021
Hora Temperatura Punto de rocio Presión Viento Velocidad viento Racha viento Humedad Intensidad lluvia(por hora) Nubes
00:04 6.8 °C -4.3 °C 1011.2 hPa OSO 9.5 km/h 13 km/h 45% 0.0 mm
00:09 6.8 °C -4.3 °C 1011.2 hPa OSO 7.8 km/h 12.9 km/h 45% 0.0 mm
00:14 6.7 °C -4.4 °C 1011.2 hPa SO 6.9 km/h 13 km/h 45% 0.0 mm
00:19 6.7 °C -4.2 °C 1011.2 hPa SSO 7.3 km/h 10 km/h 45.7% 0.0 mm
00:24 6.7 °C -4.1 °C 1011.2 hPa SO 7.6 km/h 9.7 km/h 46% 0.0 mm
00:29 6.6 °C -3.9 °C 1011.1 hPa Sur 6 km/h 8.4 km/h 46.9% 0.0 mm
00:34 6.5 °C -3.7 °C 1011.1 hPa Sur 5 km/h 8 km/h 48.3% 0.0 mm
00:39 6.3 °C -3.6 °C 1011.2 hPa Sur 4.8 km/h 8 km/h 49% 0.0 mm
00:44 6.3 °C -3.7 °C 1011.2 hPa SSO 4.7 km/h 8 km/h 49% 0.0 mm
00:49 6.3 °C -3.6 °C 1011.2 hPa SO 4.7 km/h 8.4 km/h 49.4% 0.0 mm
00:54 6.3 °C -3.6 °C 1011.2 hPa SO 4.7 km/h 8.4 km/h 49.2% 0.0 mm
00:59 6.3 °C -3.7 °C 1011.1 hPa SSO 4.7 km/h 8 km/h 49% 0.0 mm
01:04 6.3 °C -3.7 °C 1011.1 hPa SSO 4.7 km/h 9.5 km/h 49% 0.0 mm
01:09 6.2 °C -3.7 °C 1011.1 hPa SO 5.4 km/h 9.7 km/h 49% 0.0 mm
01:14 6.2 °C -3.7 °C 1010.9 hPa SSO 5.8 km/h 9.7 km/h 49% 0.0 mm
01:19 6.2 °C -3.7 °C 1010.9 hPa SO 5.8 km/h 9.7 km/h 49% 0.0 mm
01:24 6.2 °C -3.7 °C 1010.9 hPa SO 5.8 km/h 9.7 km/h 49% 0.0 mm
01:29 6.2 °C -3.8 °C 1010.7 hPa SO 5.1 km/h 8.4 km/h 49% 0.0 mm
01:34 6.1 °C -3.8 °C 1010.7 hPa SO 4.7 km/h 9.3 km/h 49% 0.0 mm
01:39 6.1 °C -3.9 °C 1010.7 hPa SSO 4.9 km/h 9.7 km/h 49% 0.0 mm
01:44 5.9 °C -3.8 °C 1010.7 hPa SSO 5 km/h 9.7 km/h 49.7% 0.0 mm
01:49 5.9 °C -3.8 °C 1010.7 hPa SSO 5.5 km/h 9.7 km/h 49.9% 0.0 mm
01:54 5.9 °C -3.8 °C 1010.7 hPa SSO 5.8 km/h 10 km/h 49.6% 0.0 mm
01:59 5.9 °C -3.9 °C 1010.7 hPa SSO 6.1 km/h 9.7 km/h 49.5% 0.0 mm
02:04 5.9 °C -3.9 °C 1010.7 hPa Sur 6.5 km/h 10 km/h 49.2% 0.0 mm
02:09 5.9 °C -4 °C 1010.8 hPa SSO 6.8 km/h 11.1 km/h 49% 0.0 mm
02:14 5.9 °C -4 °C 1010.8 hPa SO 6.9 km/h 14 km/h 49% 0.0 mm
02:19 5.9 °C -4 °C 1010.8 hPa SO 7.3 km/h 14.8 km/h 49% 0.0 mm
02:24 5.9 °C -4 °C 1010.8 hPa SSO 7.6 km/h 11.1 km/h 49% 0.0 mm
02:29 5.9 °C -4 °C 1010.7 hPa SSO 6.9 km/h 13 km/h 49% 0.0 mm
02:34 5.8 °C -4.1 °C 1010.7 hPa SO 6.5 km/h 14.8 km/h 49% 0.0 mm
02:39 5.8 °C -4.1 °C 1011.0 hPa SO 7.8 km/h 15.6 km/h 49% 0.0 mm
02:44 5.7 °C -4.2 °C 1011.0 hPa SO 8.7 km/h 16.1 km/h 49% 0.0 mm
02:49 5.7 °C -4.2 °C 1011.0 hPa SO 8 km/h 12.9 km/h 49.3% 0.0 mm
02:54 5.6 °C -4 °C 1011.1 hPa SO 7.6 km/h 13 km/h 50% 0.0 mm
02:59 5.5 °C -4.1 °C 1011.1 hPa SO 8.1 km/h 12.9 km/h 50% 0.0 mm
03:04 5.4 °C -4.2 °C 1011.1 hPa OSO 8.4 km/h 13 km/h 50% 0.0 mm
03:09 5.4 °C -4.2 °C 1011.1 hPa SO 7.9 km/h 12.9 km/h 50% 0.0 mm
03:14 5.4 °C -4.2 °C 1011.0 hPa SO 7.6 km/h 11.3 km/h 50% 0.0 mm
03:19 5.4 °C -4.2 °C 1011.0 hPa OSO 6.9 km/h 11.3 km/h 50.1% 0.0 mm
03:24 5.3 °C -4.1 °C 1011.3 hPa SO 6.5 km/h 10.3 km/h 51% 0.0 mm
03:29 5.3 °C -4.1 °C 1011.3 hPa SO 6 km/h 11.3 km/h 51% 0.0 mm
03:34 5.3 °C -4.1 °C 1011.3 hPa SO 5.8 km/h 9.7 km/h 51% 0.0 mm
03:39 5.3 °C -4.1 °C 1011.3 hPa SO 5.8 km/h 10 km/h 51% 0.0 mm
03:44 5.3 °C -4.1 °C 1011.1 hPa SO 5.8 km/h 9.7 km/h 51% 0.0 mm
03:49 5.3 °C -4.1 °C 1011.1 hPa SSO 5.3 km/h 8 km/h 51% 0.0 mm
03:54 5.3 °C -4 °C 1011.1 hPa SSO 4.7 km/h 8 km/h 51% 0.0 mm
03:59 5.4 °C -3.9 °C 1011.1 hPa SO 4.7 km/h 8 km/h 51% 0.0 mm
04:04 5.4 °C -3.9 °C 1011.1 hPa SO 4.9 km/h 10 km/h 51% 0.0 mm
04:09 5.4 °C -3.9 °C 1011.1 hPa SO 5 km/h 9.7 km/h 51% 0.0 mm
04:14 5.5 °C -3.8 °C 1011.0 hPa SO 6.4 km/h 9.7 km/h 51% 0.0 mm
04:19 5.5 °C -3.8 °C 1011.0 hPa SO 5.7 km/h 9.7 km/h 51% 0.0 mm
04:24 5.4 °C -3.9 °C 1011.0 hPa SO 4.7 km/h 8 km/h 51.3% 0.0 mm
04:29 5.4 °C -3.8 °C 1010.9 hPa SO 4.7 km/h 9.3 km/h 51.4% 0.0 mm
04:34 5.4 °C -3.7 °C 1010.9 hPa SO 4.7 km/h 9.7 km/h 51.7% 0.0 mm
04:39 5.4 °C -3.7 °C 1010.9 hPa SSO 4.7 km/h 9.7 km/h 52% 0.0 mm
04:44 5.3 °C -3.8 °C 1010.9 hPa SO 4.8 km/h 10 km/h 52% 0.0 mm
04:49 5.3 °C -3.8 °C 1010.9 hPa SO 6.5 km/h 13 km/h 52% 0.0 mm
04:54 5.2 °C -3.9 °C 1010.9 hPa SO 6.9 km/h 12.9 km/h 52% 0.0 mm
04:59 5.2 °C -3.9 °C 1010.9 hPa SO 6.9 km/h 11.3 km/h 52% 0.0 mm
05:04 5.2 °C -3.9 °C 1010.9 hPa SSO 6.9 km/h 9.7 km/h 52% 0.0 mm
05:09 5.1 °C -3.8 °C 1010.9 hPa SO 6.9 km/h 9.5 km/h 52.8% 0.0 mm
05:14 5.1 °C -3.7 °C 1010.9 hPa OSO 6.5 km/h 9.7 km/h 53% 0.0 mm
05:19 5.1 °C -3.7 °C 1010.9 hPa OSO 6.1 km/h 10 km/h 53% 0.0 mm
05:24 5 °C -3.8 °C 1011.1 hPa OSO 5.8 km/h 11.9 km/h 53% 0.0 mm
05:29 4.9 °C -3.9 °C 1011.1 hPa OSO 5.8 km/h 13.7 km/h 53% 0.0 mm
05:34 4.8 °C -3.7 °C 1011.1 hPa OSO 5.8 km/h 14.5 km/h 53.9% 0.0 mm
05:39 4.7 °C -3.8 °C 1011.1 hPa OSO 6.8 km/h 13 km/h 54% 0.0 mm
05:44 4.7 °C -3.8 °C 1010.9 hPa OSO 7.6 km/h 12.9 km/h 54% 0.0 mm
05:49 4.6 °C -3.9 °C 1010.9 hPa OSO 7.2 km/h 11.3 km/h 54% 0.0 mm
05:54 4.6 °C -3.9 °C 1010.9 hPa Oeste 6.9 km/h 11.3 km/h 54% 0.0 mm
05:59 4.6 °C -3.7 °C 1010.9 hPa OSO 5.8 km/h 9.3 km/h 54.7% 0.0 mm
06:04 4.6 °C -3.7 °C 1010.9 hPa SSO 5 km/h 11.1 km/h 55% 0.0 mm
06:09 4.5 °C -3.8 °C 1011.1 hPa SSO 5 km/h 11.3 km/h 55% 0.0 mm
06:14 4.5 °C -3.8 °C 1011.1 hPa SSO 5 km/h 8 km/h 55% 0.0 mm
06:19 4.5 °C -3.6 °C 1011.1 hPa SSE 4.8 km/h 11.1 km/h 55.9% 0.0 mm
06:24 4.4 °C -3.6 °C 1011.3 hPa SSO 4.7 km/h 11.3 km/h 56% 0.0 mm
06:29 4.4 °C -3.4 °C 1011.3 hPa SO 5.6 km/h 9.7 km/h 56.9% 0.0 mm
06:34 4.4 °C -3.5 °C 1011.3 hPa OSO 6.9 km/h 10.3 km/h 56.7% 0.0 mm
06:39 4.3 °C -3.7 °C 1011.4 hPa OSO 6.5 km/h 11.3 km/h 56% 0.0 mm
06:44 4.3 °C -3.6 °C 1011.4 hPa SO 5.8 km/h 9.3 km/h 56.5% 0.0 mm
06:49 4.2 °C -3.5 °C 1011.4 hPa SO 5.4 km/h 9.7 km/h 57% 0.0 mm
06:54 4.2 °C -3.6 °C 1011.6 hPa SO 5 km/h 8.4 km/h 57% 0.0 mm
06:59 4.2 °C -3.6 °C 1011.6 hPa OSO 4.9 km/h 8 km/h 57% 0.0 mm
07:04 4.2 °C -3.6 °C 1011.6 hPa OSO 4.7 km/h 8 km/h 57% 0.0 mm
07:09 4.1 °C -3.6 °C 1011.8 hPa OSO 4.3 km/h 8 km/h 57% 0.0 mm
07:14 4.1 °C -3.9 °C 1011.8 hPa OSO 3.9 km/h 11.1 km/h 56.1% 0.0 mm
07:19 3.9 °C -3.9 °C 1011.8 hPa SO 4.4 km/h 11.3 km/h 56.6% 0.0 mm
07:24 3.9 °C -3.8 °C 1012.0 hPa SSO 5 km/h 8 km/h 57% 0.0 mm
07:29 3.9 °C -3.8 °C 1012.0 hPa Sur 5 km/h 8 km/h 57.2% 0.0 mm
07:34 3.9 °C -3.6 °C 1012.0 hPa Sur 5 km/h 8 km/h 58% 0.0 mm
07:39 3.9 °C -3.4 °C 1012.1 hPa SSE 5 km/h 8.4 km/h 59% 0.0 mm
07:44 3.9 °C -3.4 °C 1012.1 hPa Sur 5 km/h 8 km/h 59% 0.0 mm
07:49 3.9 °C -3.4 °C 1012.1 hPa SSO 4.5 km/h 8 km/h 59% 0.0 mm
07:54 3.9 °C -3.4 °C 1012.2 hPa Sur 3.9 km/h 8 km/h 59% 0.0 mm
07:59 3.9 °C -3.4 °C 1012.2 hPa Sur 4.3 km/h 8 km/h 59% 0.0 mm
08:04 3.9 °C -3.4 °C 1012.2 hPa SSO 4.6 km/h 8 km/h 59% 0.0 mm
08:09 3.9 °C -3.4 °C 1012.4 hPa Sur 4.3 km/h 6.4 km/h 59% 0.0 mm
08:14 4 °C -3.3 °C 1012.4 hPa SSO 3.9 km/h 8 km/h 59% 0.0 mm
08:19 4.1 °C -3.2 °C 1012.4 hPa SSO 4.3 km/h 8 km/h 59% 0.0 mm
08:24 4.1 °C -3.2 °C 1012.4 hPa SSE 4.7 km/h 8 km/h 59% 0.0 mm
08:29 4.1 °C -3.2 °C 1012.4 hPa SSE 4.3 km/h 8 km/h 59% 0.0 mm
08:34 4.1 °C -3.2 °C 1012.4 hPa Sur 3.9 km/h 5.6 km/h 59% 0.0 mm
08:39 4.1 °C -3 °C 1012.5 hPa Sur 3.9 km/h 7.4 km/h 59.8% 0.0 mm
08:44 4.1 °C -3.1 °C 1012.5 hPa SSO 3.9 km/h 8.4 km/h 59.6% 0.0 mm
08:49 4.2 °C -3.1 °C 1012.5 hPa Sur 4.2 km/h 9.5 km/h 59% 0.0 mm
08:54 4.2 °C -3.1 °C 1013.0 hPa SSO 4.7 km/h 13 km/h 58.8% 0.0 mm
08:59 4.3 °C -3.2 °C 1013.0 hPa SO 6.1 km/h 11.1 km/h 58% 0.0 mm
09:04 4.4 °C -3.3 °C 1013.0 hPa SO 6.9 km/h 11.3 km/h 57.3% 0.0 mm
09:09 4.6 °C -3.2 °C 1013.2 hPa SO 6.4 km/h 11.1 km/h 57% 0.0 mm
09:14 4.6 °C -3.3 °C 1013.2 hPa SO 5.8 km/h 11.3 km/h 56.4% 0.0 mm
09:19 4.7 °C -3.4 °C 1013.2 hPa SO 6.1 km/h 11.9 km/h 56% 0.0 mm
09:24 4.7 °C -3.3 °C 1013.3 hPa SO 6.5 km/h 11.3 km/h 56% 0.0 mm
09:29 4.7 °C -3.3 °C 1013.3 hPa SO 6.5 km/h 11.9 km/h 56% 0.0 mm
09:34 4.7 °C -3.3 °C 1013.3 hPa SO 6.4 km/h 11.1 km/h 56% 0.0 mm
09:39 4.8 °C -3.2 °C 1013.6 hPa OSO 6.8 km/h 11.3 km/h 56% 0.0 mm
09:44 4.8 °C -3.5 °C 1013.6 hPa SO 6.9 km/h 11.3 km/h 55% 0.0 mm
09:49 4.9 °C -3.4 °C 1013.6 hPa OSO 6.6 km/h 11.3 km/h 55% 0.0 mm
09:54 5 °C -3.3 °C 1013.8 hPa OSO 6.5 km/h 8.7 km/h 55% 0.0 mm
09:59 5.1 °C -3.2 °C 1013.8 hPa SSO 5.5 km/h 8 km/h 55% 0.0 mm
10:04 5.2 °C -3.3 °C 1013.8 hPa SSO 3.9 km/h 11.1 km/h 54.2% 0.0 mm
10:09 5.3 °C -3.3 °C 1013.8 hPa SSO 5 km/h 11.3 km/h 54% 0.0 mm
10:14 5.4 °C -3.2 °C 1013.8 hPa SSO 5.8 km/h 9.7 km/h 54% 0.0 mm
10:19 5.6 °C -3.1 °C 1013.8 hPa SSO 5.3 km/h 10 km/h 53.5% 0.0 mm
10:24 5.7 °C -3.2 °C 1013.9 hPa Sur 5 km/h 9.7 km/h 53% 0.0 mm
10:29 5.8 °C -3.1 °C 1013.9 hPa Sur 5.5 km/h 9.7 km/h 52.6% 0.0 mm
10:34 5.9 °C -3.2 °C 1013.9 hPa Sur 5.8 km/h 9.7 km/h 52.2% 0.0 mm
10:39 6.1 °C -3.1 °C 1013.9 hPa Sur 5.8 km/h 9.3 km/h 52% 0.0 mm
10:44 6.2 °C -3 °C 1013.8 hPa SSO 5.8 km/h 9.7 km/h 51.7% 0.0 mm
10:49 6.3 °C -2.9 °C 1013.8 hPa Sur 6.2 km/h 13 km/h 52% 0.0 mm
10:54 6.4 °C -2.9 °C 1014.2 hPa SSO 6.5 km/h 13 km/h 51.7% 0.0 mm
10:59 6.4 °C -3 °C 1014.2 hPa Sur 7.7 km/h 13 km/h 51% 0.0 mm
11:04 6.5 °C -2.7 °C 1014.2 hPa SSO 8.4 km/h 14.8 km/h 51.9% 0.0 mm
11:09 6.6 °C -2.9 °C 1014.3 hPa SO 8.4 km/h 14.8 km/h 50.8% 0.0 mm
11:14 6.7 °C -3.1 °C 1014.3 hPa SO 8.4 km/h 15.6 km/h 50% 0.0 mm
11:19 6.7 °C -2.9 °C 1014.3 hPa SO 8.6 km/h 16.1 km/h 50.2% 0.0 mm
11:24 6.8 °C -3 °C 1014.3 hPa SSO 8.7 km/h 14.8 km/h 49.7% 0.0 mm
11:29 6.9 °C -3.1 °C 1014.0 hPa SSO 7.6 km/h 14.8 km/h 49% 0.0 mm
11:34 7 °C -3 °C 1014.0 hPa SSO 6.9 km/h 13 km/h 49% 0.0 mm
11:39 7.2 °C -3.1 °C 1014.1 hPa SO 7.3 km/h 13.7 km/h 48.1% 0.0 mm
11:44 7.2 °C -3.1 °C 1014.1 hPa SO 7.6 km/h 14.5 km/h 48% 0.0 mm
11:49 7.2 °C -3.1 °C 1014.1 hPa SO 8.3 km/h 14.5 km/h 48% 0.0 mm
11:54 7.2 °C -3 °C 1014.1 hPa SO 8.7 km/h 11.3 km/h 48.3% 0.0 mm
11:59 7.4 °C -2.9 °C 1013.9 hPa SSO 7.2 km/h 11.9 km/h 47.9% 0.0 mm
12:04 7.5 °C -2.9 °C 1013.9 hPa SSO 6.5 km/h 14.8 km/h 47.8% 0.0 mm
12:09 7.5 °C -2.8 °C 1013.9 hPa Sur 7.2 km/h 15.6 km/h 48% 0.0 mm
12:14 7.6 °C -2.7 °C 1013.8 hPa SSO 7.6 km/h 16.1 km/h 48% 0.0 mm
12:19 7.7 °C -2.5 °C 1013.8 hPa SSO 7.1 km/h 12.9 km/h 48.3% 0.0 mm
12:24 7.9 °C -2.5 °C 1013.8 hPa Sur 6.9 km/h 11.3 km/h 48% 0.0 mm
12:29 8 °C -2.3 °C 1013.6 hPa SSO 6.9 km/h 13 km/h 48% 0.0 mm
12:34 8.1 °C -2.3 °C 1013.6 hPa SSO 6.9 km/h 14.8 km/h 48% 0.0 mm
12:39 8.3 °C -2.1 °C 1013.6 hPa Sur 7.4 km/h 14.5 km/h 47.9% 0.0 mm
12:44 8.5 °C -2.2 °C 1013.4 hPa SSE 7.6 km/h 13 km/h 47% 0.0 mm
12:49 8.7 °C -2.1 °C 1013.4 hPa SO 7.6 km/h 12.9 km/h 46.6% 0.0 mm
12:54 8.8 °C -2.2 °C 1013.4 hPa SO 7.6 km/h 11.3 km/h 46% 0.0 mm
12:59 8.9 °C -2.1 °C 1013.2 hPa SSO 6.1 km/h 11.1 km/h 46% 0.0 mm
13:04 8.9 °C -2.2 °C 1013.2 hPa SSO 5.8 km/h 11.3 km/h 45.5% 0.0 mm
13:09 8.9 °C -2.1 °C 1013.2 hPa SSO 6.2 km/h 11.9 km/h 46% 0.0 mm
13:14 8.9 °C -2.1 °C 1012.9 hPa Sur 6.5 km/h 14.8 km/h 46% 0.0 mm
13:19 9.1 °C -1.9 °C 1012.9 hPa SSO 7.1 km/h 14.5 km/h 46% 0.0 mm
13:24 9.3 °C -1.8 °C 1012.9 hPa Sur 7.6 km/h 14.8 km/h 45.7% 0.0 mm
13:29 9.3 °C -1.8 °C 1012.8 hPa Sur 7.6 km/h 14.5 km/h 45.8% 0.0 mm
13:34 9.4 °C -1.7 °C 1012.8 hPa Sur 7.6 km/h 11.3 km/h 46% 0.0 mm
13:39 9.6 °C -1.6 °C 1012.8 hPa Sur 6.4 km/h 10.3 km/h 45.7% 0.0 mm
13:44 9.7 °C -1.7 °C 1012.6 hPa SO 5.8 km/h 11.1 km/h 45% 0.0 mm
13:49 9.7 °C -1.7 °C 1012.6 hPa SSO 6.2 km/h 11.3 km/h 45% 0.0 mm
13:54 9.8 °C -1.6 °C 1012.6 hPa SSO 6.5 km/h 9.5 km/h 45.2% 0.0 mm
13:59 9.9 °C -1.4 °C 1012.5 hPa SSO 5.3 km/h 9.7 km/h 45.2% 0.0 mm
14:04 10.2 °C -1.3 °C 1012.5 hPa ONO 4.6 km/h 8 km/h 45% 0.0 mm
14:09 10.3 °C -1.2 °C 1012.5 hPa ONO 3.8 km/h 7.4 km/h 45% 0.0 mm
14:14 10.5 °C -0.7 °C 1012.2 hPa North 3.2 km/h 11.1 km/h 45.8% 0.0 mm
14:19 10.7 °C -0.4 °C 1012.2 hPa NO 3.6 km/h 11.3 km/h 46% 0.0 mm
14:24 10.8 °C -0.4 °C 1012.2 hPa NNE 3.9 km/h 9.7 km/h 46% 0.0 mm
14:29 10.9 °C 0 °C 1012.2 hPa ENE 4.6 km/h 9.7 km/h 46.8% 0.0 mm
14:34 11.1 °C -0.1 °C 1012.2 hPa NE 5 km/h 13 km/h 46% 0.0 mm
14:39 10.9 °C -0.1 °C 1012.2 hPa Este 5 km/h 8.4 km/h 46.5% 0.0 mm
14:44 10.9 °C 0 °C 1011.9 hPa Este 5 km/h 9.3 km/h 47% 0.0 mm
14:49 10.9 °C 0 °C 1011.9 hPa ENE 4.8 km/h 9.7 km/h 47% 0.0 mm
14:54 11 °C -0.1 °C 1011.9 hPa Este 4.7 km/h 8 km/h 46.1% 0.0 mm
14:59 11.2 °C 0 °C 1011.8 hPa ENE 3.7 km/h 8 km/h 46% 0.0 mm
15:04 11.3 °C 0.1 °C 1011.8 hPa NNE 3.2 km/h 8 km/h 46% 0.0 mm
15:09 11.6 °C 0 °C 1011.8 hPa NNE 3.7 km/h 9.5 km/h 44.8% 0.0 mm
15:14 11.5 °C -0.3 °C 1011.7 hPa NNO 3.9 km/h 10.3 km/h 44% 0.0 mm
15:19 11.5 °C -0.3 °C 1011.7 hPa NO 4.4 km/h 9.7 km/h 44% 0.0 mm
15:24 11.4 °C -0.4 °C 1011.8 hPa NNE 4.7 km/h 8 km/h 43.9% 0.0 mm
15:29 11.4 °C -0.8 °C 1011.8 hPa NE 4.1 km/h 9.5 km/h 42.9% 0.0 mm
15:34 11.4 °C -0.6 °C 1011.8 hPa NE 3.9 km/h 10 km/h 43.7% 0.0 mm
15:39 11.4 °C -0.6 °C 1011.8 hPa NNE 5.2 km/h 11.9 km/h 43.5% 0.0 mm
15:44 11.3 °C -0.8 °C 1011.8 hPa North 5.8 km/h 11.3 km/h 43% 0.0 mm
15:49 11.4 °C -0.6 °C 1011.8 hPa NNE 5.3 km/h 9.7 km/h 43.6% 0.0 mm
15:54 11.6 °C -0.3 °C 1011.8 hPa NNE 5 km/h 11.1 km/h 44% 0.0 mm
15:59 11.7 °C -0.4 °C 1011.7 hPa NNE 5 km/h 11.3 km/h 43.2% 0.0 mm
16:04 11.7 °C -0.4 °C 1011.7 hPa NNE 5 km/h 11.3 km/h 43.4% 0.0 mm
16:09 11.6 °C -0.3 °C 1011.7 hPa NNO 5.5 km/h 11.3 km/h 44% 0.0 mm
16:14 11.6 °C -0.2 °C 1011.7 hPa NNE 5.8 km/h 9.7 km/h 44.2% 0.0 mm
16:19 11.6 °C -0.2 °C 1011.7 hPa NNE 5.1 km/h 10 km/h 44.2% 0.0 mm
16:24 11.6 °C 0.1 °C 1011.9 hPa NNO 4.7 km/h 10 km/h 45% 0.0 mm
16:29 11.6 °C 0.1 °C 1011.9 hPa NNE 5.4 km/h 9.7 km/h 45% 0.0 mm
16:34 11.6 °C 0.1 °C 1011.9 hPa NNO 5.8 km/h 9.7 km/h 45% 0.0 mm
16:39 11.7 °C 0.4 °C 1011.9 hPa NNE 4.4 km/h 10.3 km/h 45.8% 0.0 mm
16:44 11.7 °C 0.4 °C 1011.8 hPa NNE 3.9 km/h 11.3 km/h 46% 0.0 mm
16:49 11.7 °C 0.4 °C 1011.8 hPa North 4.6 km/h 11.3 km/h 46% 0.0 mm
16:54 11.7 °C 0.5 °C 1011.8 hPa NNE 5 km/h 9.5 km/h 46.5% 0.0 mm
16:59 11.7 °C 0.5 °C 1011.6 hPa North 5 km/h 11.1 km/h 46.1% 0.0 mm
17:04 11.7 °C 0.4 °C 1011.6 hPa NNE 5 km/h 16.7 km/h 46% 0.0 mm
17:09 11.7 °C 0.6 °C 1011.6 hPa NNE 6.3 km/h 16.1 km/h 46.7% 0.0 mm
17:14 11.7 °C 0.7 °C 1011.5 hPa NNE 6.9 km/h 14.8 km/h 47% 0.0 mm
17:19 11.6 °C 0.7 °C 1011.5 hPa NNE 7.4 km/h 12.9 km/h 47% 0.0 mm
17:24 11.5 °C 0.6 °C 1011.6 hPa NNE 7.6 km/h 14.8 km/h 47% 0.0 mm
17:29 11.4 °C 0.8 °C 1011.6 hPa NE 8.1 km/h 14.5 km/h 48% 0.0 mm
17:34 11.4 °C 1.6 °C 1011.6 hPa NE 8.4 km/h 18 km/h 51% 0.0 mm
17:39 11.3 °C 2.1 °C 1011.6 hPa NE 8.6 km/h 17.7 km/h 53.3% 0.0 mm
17:44 11.2 °C 2.3 °C 1011.6 hPa ENE 8.7 km/h 16.1 km/h 54.5% 0.0 mm
17:49 11 °C 2.4 °C 1011.6 hPa NE 8.5 km/h 14.5 km/h 55.4% 0.0 mm
17:54 10.9 °C 2.6 °C 1011.9 hPa NE 8.4 km/h 11.3 km/h 56.6% 0.0 mm
17:59 10.8 °C 2.8 °C 1011.9 hPa ENE 7.3 km/h 13 km/h 57.7% 0.0 mm
18:04 10.7 °C 2.9 °C 1011.9 hPa ENE 6.9 km/h 12.9 km/h 58.7% 0.0 mm
18:09 10.6 °C 3 °C 1012.0 hPa ENE 7.4 km/h 15.6 km/h 59.5% 0.0 mm
18:14 10.6 °C 3.1 °C 1012.0 hPa ENE 7.6 km/h 16.1 km/h 60% 0.0 mm
18:19 10.5 °C 3.3 °C 1012.0 hPa NE 7.1 km/h 14.5 km/h 61% 0.0 mm
18:24 10.4 °C 3.2 °C 1012.1 hPa NE 6.9 km/h 13 km/h 61% 0.0 mm
18:29 10.4 °C 3.2 °C 1012.1 hPa NE 6.9 km/h 13 km/h 61% 0.0 mm
18:34 10.4 °C 3.4 °C 1012.1 hPa NNE 6.9 km/h 12.9 km/h 61.9% 0.0 mm
18:39 10.3 °C 3.4 °C 1012.3 hPa NE 6.9 km/h 13 km/h 62% 0.0 mm
18:44 10.3 °C 3.3 °C 1012.3 hPa NNE 6.9 km/h 13.7 km/h 62% 0.0 mm
18:49 10.3 °C 3.3 °C 1012.3 hPa NNE 7.4 km/h 14.5 km/h 62% 0.0 mm
18:54 10.2 °C 3.4 °C 1012.4 hPa NNE 7.6 km/h 11.3 km/h 62.6% 0.0 mm
18:59 10.2 °C 3.4 °C 1012.4 hPa NE 6.3 km/h 11.3 km/h 63% 0.0 mm
19:04 10.2 °C 3.4 °C 1012.4 hPa NNE 5.8 km/h 10 km/h 63% 0.0 mm
19:09 10.1 °C 3.4 °C 1012.5 hPa ENE 5.8 km/h 9.7 km/h 63% 0.0 mm
19:14 10.1 °C 3.4 °C 1012.5 hPa NE 5.8 km/h 8 km/h 63% 0.0 mm
19:19 10.1 °C 3.5 °C 1012.5 hPa NE 4.1 km/h 8 km/h 63.5% 0.0 mm
19:24 10 °C 3.5 °C 1012.6 hPa NE 3.2 km/h 13 km/h 64% 0.0 mm
19:29 10 °C 3.5 °C 1012.6 hPa NNE 5.3 km/h 12.9 km/h 64% 0.0 mm
19:34 9.9 °C 3.4 °C 1012.6 hPa NE 6.5 km/h 11.3 km/h 64% 0.0 mm
19:39 9.9 °C 3.4 °C 1012.7 hPa NNE 6 km/h 9.7 km/h 64% 0.0 mm
19:44 9.9 °C 3.5 °C 1012.7 hPa North 5.8 km/h 9.7 km/h 64.9% 0.0 mm
19:49 9.8 °C 3.5 °C 1012.7 hPa NNO 5.8 km/h 9.7 km/h 65% 0.0 mm
19:54 9.8 °C 3.5 °C 1012.9 hPa NNO 5.8 km/h 8 km/h 65% 0.0 mm
19:59 9.7 °C 3.5 °C 1012.9 hPa NO 4.5 km/h 6.4 km/h 65% 0.0 mm
20:04 9.7 °C 3.4 °C 1012.9 hPa ONO 3.9 km/h 6.4 km/h 65% 0.0 mm
20:09 9.7 °C 3.4 °C 1012.9 hPa ONO 2.9 km/h 4.8 km/h 65% 0.0 mm
20:14 9.6 °C 3.5 °C 1012.9 hPa ONO 2.2 km/h 3.7 km/h 65.9% 0.0 mm
20:19 9.6 °C 3.6 °C 1012.9 hPa NO 0.8 km/h 6.4 km/h 66% 0.0 mm
20:24 9.6 °C 3.6 °C 1013.0 hPa Calm   8 km/h 66% 0.0 mm
20:29 9.6 °C 3.6 °C 1013.0 hPa NNE 2.9 km/h 8.4 km/h 66% 0.0 mm
20:34 9.6 °C 3.6 °C 1013.0 hPa NNE 4.7 km/h 8.4 km/h 66% 0.0 mm
20:39 9.5 °C 3.6 °C 1013.0 hPa NNE 4.9 km/h 9.3 km/h 66.5% 0.0 mm
20:44 9.4 °C 3.6 °C 1012.8 hPa NNE 5 km/h 9.7 km/h 67% 0.0 mm
20:49 9.4 °C 3.5 °C 1012.8 hPa NNE 5 km/h 11.1 km/h 67% 0.0 mm
20:54 9.3 °C 3.6 °C 1012.8 hPa NNE 5 km/h 11.3 km/h 67.8% 0.0 mm
20:59 9.2 °C 3.6 °C 1012.5 hPa NNE 6.4 km/h 13 km/h 68% 0.0 mm
21:04 9.2 °C 3.8 °C 1012.5 hPa NE 6.9 km/h 13 km/h 69% 0.0 mm
21:09 9.2 °C 3.8 °C 1012.5 hPa NNE 7.4 km/h 13.7 km/h 69% 0.0 mm
21:14 9.2 °C 4 °C 1012.2 hPa NNE 7.6 km/h 18.5 km/h 69.8% 0.0 mm
21:19 9.2 °C 3.9 °C 1012.2 hPa NNE 8.8 km/h 22.2 km/h 69.3% 0.0 mm
21:24 9.3 °C 3.9 °C 1012.2 hPa NNE 9.5 km/h 22.5 km/h 69% 0.0 mm
21:29 9.3 °C 3.9 °C 1012.0 hPa NNE 11.7 km/h 22.5 km/h 69% 0.0 mm
21:34 9.4 °C 4 °C 1012.0 hPa NNE 13 km/h 20.9 km/h 69% 0.0 mm
21:39 9.4 °C 4 °C 1012.0 hPa NNE 12.3 km/h 20.9 km/h 69% 0.0 mm
21:44 9.3 °C 3.9 °C 1011.9 hPa NNE 11.9 km/h 23.3 km/h 69% 0.0 mm
21:49 9.4 °C 4 °C 1011.9 hPa NNE 12.1 km/h 24.1 km/h 69% 0.0 mm
21:54 9.4 °C 4 °C 1011.9 hPa NNE 12.2 km/h 20.9 km/h 69% 0.0 mm
21:59 9.4 °C 3.8 °C 1011.8 hPa NNE 12.1 km/h 24.1 km/h 68.2% 0.0 mm
22:04 9.4 °C 3.8 °C 1011.8 hPa NNE 11.9 km/h 24.1 km/h 68% 0.0 mm
22:09 9.4 °C 3.8 °C 1011.8 hPa NNE 13.3 km/h 24.1 km/h 68% 0.0 mm
22:14 9.4 °C 3.8 °C 1011.6 hPa NNE 14 km/h 22.5 km/h 68% 0.0 mm
22:19 9.4 °C 3.8 °C 1011.6 hPa NNE 13.4 km/h 20.9 km/h 68% 0.0 mm
22:24 9.4 °C 3.8 °C 1011.6 hPa NNE 13 km/h 20.4 km/h 68% 0.0 mm
22:29 9.4 °C 3.8 °C 1011.6 hPa NE 12.5 km/h 24.1 km/h 68% 0.0 mm
22:34 9.4 °C 3.8 °C 1011.6 hPa NE 12.2 km/h 24.1 km/h 68% 0.0 mm
22:39 9.4 °C 3.8 °C 1011.6 hPa NE 12.2 km/h 20.9 km/h 68% 0.0 mm
22:44 9.4 °C 3.7 °C 1011.6 hPa NE 12.2 km/h 20.9 km/h 68% 0.0 mm
22:49 9.3 °C 3.7 °C 1011.6 hPa NE 10.8 km/h 20.9 km/h 68% 0.0 mm
22:54 9.3 °C 3.7 °C 1011.6 hPa NE 10 km/h 17.2 km/h 68% 0.0 mm
22:59 9.3 °C 3.6 °C 1011.6 hPa NE 9.7 km/h 17.7 km/h 68% 0.0 mm
23:04 9.2 °C 3.6 °C 1011.6 hPa NNE 9.5 km/h 15.6 km/h 68% 0.0 mm
23:09 9.2 °C 3.7 °C 1011.6 hPa NE 8.9 km/h 15.6 km/h 68.7% 0.0 mm
23:14 9.1 °C 3.7 °C 1011.5 hPa ENE 8.4 km/h 16.7 km/h 69% 0.0 mm
23:19 9.1 °C 3.8 °C 1011.5 hPa ENE 8.4 km/h 16.1 km/h 69.6% 0.0 mm
23:24 8.9 °C 3.7 °C 1011.5 hPa ENE 8.4 km/h 17.2 km/h 70% 0.0 mm
23:29 8.8 °C 3.6 °C 1011.2 hPa NE 7.9 km/h 17.7 km/h 70% 0.0 mm
23:34 8.8 °C 3.6 °C 1011.2 hPa ENE 7.6 km/h 17.2 km/h 70% 0.0 mm
23:39 8.8 °C 3.6 °C 1011.2 hPa NE 8.2 km/h 17.7 km/h 70% 0.0 mm
23:44 8.8 °C 3.6 °C 1011.1 hPa NE 8.7 km/h 16.1 km/h 70% 0.0 mm
23:49 8.8 °C 3.7 °C 1011.1 hPa NE 7.9 km/h 14.5 km/h 70.3% 0.0 mm
23:54 8.8 °C 3.8 °C 1011.1 hPa NE 7.6 km/h 13.7 km/h 71% 0.0 mm
23:59 8.8 °C 3.8 °C 1010.9 hPa NE 7.2 km/h 14.5 km/h 71% 0.0 mm
Murcia-Puente Tocinos, Espa?a
Compliments of Weather Underground - 3 mb

La estación de MeteoMurcia.com, publica sus datos en los siguientes proyectos:

Weather Underground PWS IMURCIAP2 Meteoclimatic www.awekas.at

W3Counter
Web Analytics